Kearns, Utah
Current Conditions -  °F | °C
As of 12:53 PM on Monday 24 Nov 2014 (Local Time) from KSLC Reporting Station
Few Clouds Few Clouds  
Wind Chill: 33°   Ceiling: Unl
Heat Index: 41°   Visibility: 10mi
Dew Point: 22°   Wind: 16mph
Humidity: 47%   Direction: 310°NW
Pressure: 30.36"   Gusts: NA
Location:  40.65°N, 111.96°W
Report Text: KSLC 241953Z 31014KT 10SM FEW045TCU FEW065 05/M06 A3036 RMK AO2 SLP283 VIRGA DSNT SE TCU SW T00501056
Loading
Personal Weather Stations






























Interactive Weather Map New forecast layout! Learn more

10-Day Weather Forecast

Advertisements
Track Severe Weather on mobile